Time;durP1;ratioP1;P1;durP2;ratioP2;P2;SDS_P1;SDS_P2;PMS_P1;PMS_P2;Temp;Humidity;BMP_temperature;BMP_pressure;BME280_temperature;BME280_humidity;BME280_pressure;Samples;Min_cycle;Max_cycle;Signal;HPM_P1;HPM_P2
2023/06/18 00:01:05;;;;;;;8.20;7.60;;;28.80;43.50;;;;;;4944622;28;20473;-71
2023/06/18 00:03:36;;;;;;;9.50;8.20;;;28.80;43.50;;;;;;4984242;28;20564;-71
2023/06/18 00:06:02;;;;;;;8.63;8.00;;;28.80;43.60;;;;;;4976901;28;20437;-71
2023/06/18 00:08:28;;;;;;;8.50;7.80;;;28.80;43.60;;;;;;4993898;28;20448;-71
2023/06/18 00:10:56;;;;;;;10.27;9.27;;;28.80;43.50;;;;;;4976986;28;20443;-71
2023/06/18 00:13:24;;;;;;;10.17;9.37;;;28.70;43.50;;;;;;4994052;28;20428;-71
2023/06/18 00:15:50;;;;;;;8.30;7.70;;;28.70;43.50;;;;;;4976937;28;20449;-71
2023/06/18 00:18:21;;;;;;;9.07;8.27;;;28.70;43.60;;;;;;4983628;28;20531;-71
2023/06/18 00:20:51;;;;;;;9.00;8.20;;;28.70;43.60;;;;;;4992395;28;20556;-71
2023/06/18 00:23:19;;;;;;;8.90;8.27;;;28.60;43.50;;;;;;4992697;28;20535;-71
2023/06/18 00:25:48;;;;;;;9.07;8.47;;;28.60;43.60;;;;;;4976401;28;20440;-71
2023/06/18 00:28:14;;;;;;;9.70;8.70;;;28.60;43.60;;;;;;4967224;28;20555;-71
2023/06/18 00:30:42;;;;;;;9.83;9.07;;;28.60;43.60;;;;;;5031212;23;20635;-73
2023/06/18 00:33:08;;;;;;;8.93;8.20;;;28.60;43.60;;;;;;4966752;28;20495;-73
2023/06/18 00:35:38;;;;;;;9.57;8.77;;;28.50;43.60;;;;;;4956120;28;20916;-72
2023/06/18 00:38:09;;;;;;;8.73;8.03;;;28.50;43.70;;;;;;4956394;28;20450;-70
2023/06/18 00:40:37;;;;;;;9.03;8.20;;;28.50;43.70;;;;;;4970499;28;20470;-72
2023/06/18 00:43:08;;;;;;;9.70;8.70;;;28.50;43.70;;;;;;4941136;28;20529;-72
2023/06/18 00:45:37;;;;;;;9.70;8.80;;;28.40;43.70;;;;;;4972649;28;20434;-72
2023/06/18 00:48:08;;;;;;;10.10;9.20;;;28.40;43.80;;;;;;4940381;28;20887;-72
2023/06/18 00:50:35;;;;;;;8.53;7.90;;;28.40;43.80;;;;;;4956058;28;20821;-72
2023/06/18 00:53:02;;;;;;;8.73;7.97;;;28.40;43.80;;;;;;4972242;28;20924;-72
2023/06/18 00:55:36;;;;;;;9.37;8.53;;;28.30;43.80;;;;;;4951543;29;20486;-72
2023/06/18 00:58:03;;;;;;;9.23;8.53;;;28.30;43.80;;;;;;4955626;28;20417;-72
2023/06/18 01:00:32;;;;;;;9.27;8.57;;;28.30;43.80;;;;;;4954883;28;20569;-72
2023/06/18 01:03:04;;;;;;;9.67;8.97;;;28.30;43.90;;;;;;4971846;28;20449;-72
2023/06/18 01:05:33;;;;;;;8.70;7.87;;;28.30;44.00;;;;;;4973120;28;20453;-72
2023/06/18 01:08:06;;;;;;;9.07;8.30;;;28.20;43.90;;;;;;4973311;28;20414;-72
2023/06/18 01:10:34;;;;;;;10.67;9.77;;;28.20;43.90;;;;;;4972674;28;21018;-72
2023/06/18 01:13:00;;;;;;;9.00;8.20;;;28.20;43.90;;;;;;4955757;28;20533;-72
2023/06/18 01:15:28;;;;;;;8.40;7.80;;;28.10;43.90;;;;;;4939716;28;20580;-73
2023/06/18 01:17:57;;;;;;;8.90;8.20;;;28.10;43.90;;;;;;4955325;28;20434;-72
2023/06/18 01:20:30;;;;;;;9.57;8.50;;;28.10;43.90;;;;;;4971555;28;20465;-71
2023/06/18 01:23:02;;;;;;;9.70;8.80;;;28.10;43.90;;;;;;4955945;28;20443;-72
2023/06/18 01:25:36;;;;;;;9.43;8.60;;;28.00;43.90;;;;;;4955137;28;20438;-72
2023/06/18 01:28:07;;;;;;;9.47;8.77;;;28.00;43.90;;;;;;4955318;28;20435;-72
2023/06/18 01:30:36;;;;;;;9.33;8.63;;;28.00;43.90;;;;;;4954851;28;20450;-72
2023/06/18 01:33:09;;;;;;;8.10;7.50;;;28.00;43.90;;;;;;4971881;28;20434;-72
2023/06/18 01:35:37;;;;;;;9.80;9.00;;;27.90;43.80;;;;;;4939300;28;20565;-72
2023/06/18 01:38:24;;;;;;;9.20;8.40;;;27.90;43.90;;;;;;4955294;28;20433;-72
2023/06/18 01:41:07;;;;;;;8.50;7.80;;;27.90;43.90;;;;;;4971175;28;20854;-72
2023/06/18 01:43:48;;;;;;;9.10;8.30;;;27.90;43.90;;;;;;4955910;28;20421;-72
2023/06/18 01:46:24;;;;;;;12.07;8.70;;;27.90;43.90;;;;;;4955496;28;20967;-72
2023/06/18 01:49:00;;;;;;;9.20;8.50;;;27.80;43.90;;;;;;4971820;28;20433;-72
2023/06/18 01:51:30;;;;;;;9.23;8.40;;;27.80;44.00;;;;;;4955706;28;20433;-72
2023/06/18 01:54:00;;;;;;;8.83;8.10;;;27.80;44.00;;;;;;4956344;28;20558;-72
2023/06/18 01:56:33;;;;;;;8.67;7.97;;;27.80;44.10;;;;;;4955993;28;20609;-73
2023/06/18 01:59:01;;;;;;;9.37;8.57;;;27.80;44.10;;;;;;4955690;28;20449;-72
2023/06/18 02:01:31;;;;;;;10.60;9.07;;;27.70;44.10;;;;;;4955175;28;20476;-72
2023/06/18 02:03:59;;;;;;;9.07;8.27;;;27.70;44.20;;;;;;4955972;28;20837;-72
2023/06/18 02:06:25;;;;;;;9.43;8.53;;;27.70;44.20;;;;;;4955653;28;20434;-72
2023/06/18 02:08:53;;;;;;;8.50;7.80;;;27.60;44.20;;;;;;4955089;28;20939;-72
2023/06/18 02:11:27;;;;;;;8.70;8.10;;;27.60;44.30;;;;;;4954218;28;20461;-72
2023/06/18 02:13:52;;;;;;;8.90;8.20;;;27.60;44.30;;;;;;4939051;28;20967;-72
2023/06/18 02:16:18;;;;;;;9.20;8.30;;;27.60;44.40;;;;;;4971956;28;20747;-72
2023/06/18 02:18:49;;;;;;;9.73;8.60;;;27.60;44.40;;;;;;4938710;28;20986;-72
2023/06/18 02:21:17;;;;;;;8.57;7.77;;;27.50;44.40;;;;;;4954574;28;20497;-72
2023/06/18 02:23:46;;;;;;;9.37;8.57;;;27.50;44.50;;;;;;4938211;28;20569;-73
2023/06/18 02:26:18;;;;;;;8.57;7.87;;;27.50;44.50;;;;;;4972050;28;20194;-72
2023/06/18 02:28:46;;;;;;;9.10;8.40;;;27.50;44.50;;;;;;4954872;28;20448;-72
2023/06/18 02:31:15;;;;;;;8.77;8.17;;;27.40;44.50;;;;;;4954842;28;20447;-72
2023/06/18 02:33:46;;;;;;;9.20;8.40;;;27.40;47.40;;;;;;4970659;28;20428;-72
2023/06/18 02:36:13;;;;;;;9.70;8.90;;;27.40;59.40;;;;;;4954298;28;20446;-72
2023/06/18 02:38:39;;;;;;;9.20;8.40;;;27.40;59.40;;;;;;4954658;28;20822;-73
2023/06/18 02:41:06;;;;;;;9.30;8.50;;;27.30;59.10;;;;;;4971463;28;20827;-72
2023/06/18 02:43:32;;;;;;;8.77;7.97;;;27.30;59.10;;;;;;4970510;28;20414;-72
2023/06/18 02:46:00;;;;;;;8.93;8.23;;;27.30;59.20;;;;;;4954317;28;21017;-72
2023/06/18 02:48:26;;;;;;;9.40;8.50;;;27.30;60.40;;;;;;4954507;28;20478;-72
2023/06/18 02:50:53;;;;;;;10.07;9.17;;;27.20;59.10;;;;;;4953759;28;20437;-73
2023/06/18 02:53:21;;;;;;;8.83;8.13;;;27.20;59.00;;;;;;4954385;28;20703;-72
2023/06/18 02:55:50;;;;;;;10.10;9.10;;;27.30;59.10;;;;;;4953583;28;20534;-72
2023/06/18 02:58:27;;;;;;;8.90;8.00;;;27.20;59.40;;;;;;4938108;28;20473;-72
2023/06/18 03:01:02;;;;;;;9.17;8.47;;;27.20;59.70;;;;;;4953746;28;20472;-72
2023/06/18 03:03:34;;;;;;;9.00;8.20;;;27.10;59.10;;;;;;4941067;28;20457;-72
2023/06/18 03:06:05;;;;;;;9.00;8.30;;;27.20;59.30;;;;;;4957939;28;20434;-72
2023/06/18 03:08:31;;;;;;;8.93;8.13;;;27.10;58.90;;;;;;4974325;28;20411;-72
2023/06/18 03:10:57;;;;;;;8.93;8.23;;;27.10;59.00;;;;;;4941299;28;20505;-72
2023/06/18 03:13:28;;;;;;;8.83;7.93;;;27.10;58.80;;;;;;4942194;28;20438;-72
2023/06/18 03:15:55;;;;;;;9.30;8.50;;;27.00;58.80;;;;;;4957896;28;20441;-72
2023/06/18 03:18:21;;;;;;;9.30;8.40;;;27.00;58.90;;;;;;4973495;28;20422;-72
2023/06/18 03:20:50;;;;;;;8.90;8.10;;;27.00;58.80;;;;;;4941537;28;20872;-73
2023/06/18 03:23:16;;;;;;;8.40;7.80;;;27.00;58.80;;;;;;4957922;28;20958;-72
2023/06/18 03:25:47;;;;;;;8.50;7.80;;;27.00;58.50;;;;;;4941919;28;20430;-72
2023/06/18 03:28:27;;;;;;;8.90;8.20;;;27.00;58.70;;;;;;4974076;28;20464;-72
2023/06/18 03:30:56;;;;;;;8.37;7.70;;;26.90;58.70;;;;;;4957006;28;20430;-72
2023/06/18 03:33:22;;;;;;;8.80;8.10;;;26.90;58.20;;;;;;4957492;28;20464;-72
2023/06/18 03:35:51;;;;;;;8.57;7.87;;;26.90;58.50;;;;;;4957834;28;20794;-72
2023/06/18 03:38:22;;;;;;;8.60;7.90;;;26.80;57.80;;;;;;4941632;28;20425;-72
2023/06/18 03:40:48;;;;;;;8.43;7.83;;;26.90;57.10;;;;;;4939742;28;20466;-72
2023/06/18 03:43:18;;;;;;;8.80;8.00;;;26.80;56.30;;;;;;4973449;28;20436;-72
2023/06/18 03:45:45;;;;;;;9.20;8.30;;;26.80;56.20;;;;;;4973494;28;20437;-72
2023/06/18 03:48:11;;;;;;;8.50;7.80;;;26.80;56.00;;;;;;4957253;28;20413;-72
2023/06/18 03:50:42;;;;;;;8.80;7.90;;;26.70;55.70;;;;;;4957157;28;20809;-72
2023/06/18 03:53:09;;;;;;;9.00;8.30;;;26.70;55.40;;;;;;4941408;28;20444;-73
2023/06/18 03:55:35;;;;;;;9.70;8.80;;;26.70;55.40;;;;;;4972586;28;20508;-72
2023/06/18 03:58:03;;;;;;;9.60;8.60;;;26.70;55.30;;;;;;4957402;28;20445;-73
2023/06/18 04:00:32;;;;;;;9.30;8.60;;;26.60;54.90;;;;;;4940326;28;20492;-72
2023/06/18 04:03:00;;;;;;;8.43;7.83;;;26.70;54.80;;;;;;4973287;28;20461;-72
2023/06/18 04:05:29;;;;;;;8.10;7.40;;;26.60;54.40;;;;;;4973205;28;20429;-72
2023/06/18 04:07:58;;;;;;;9.37;8.57;;;26.60;54.20;;;;;;4973018;28;20524;-73
2023/06/18 04:10:24;;;;;;;9.10;8.37;;;26.60;54.00;;;;;;4954513;28;20521;-72
2023/06/18 04:12:52;;;;;;;9.23;8.37;;;26.60;54.00;;;;;;4956546;28;20942;-72
2023/06/18 04:15:21;;;;;;;25.73;8.40;;;26.60;54.10;;;;;;4940997;28;20591;-72
2023/06/18 04:17:50;;;;;;;9.00;8.10;;;26.60;54.20;;;;;;4973088;28;20761;-72
2023/06/18 04:20:18;;;;;;;9.47;8.73;;;26.50;54.10;;;;;;4956727;28;20470;-72
2023/06/18 04:22:49;;;;;;;8.80;8.10;;;26.50;54.40;;;;;;4957148;28;20521;-72
2023/06/18 04:25:17;;;;;;;8.93;8.13;;;26.40;54.50;;;;;;4956907;28;20514;-72
2023/06/18 04:27:49;;;;;;;9.27;8.47;;;26.50;54.70;;;;;;4941807;28;20430;-73
2023/06/18 04:30:18;;;;;;;10.00;9.03;;;26.40;54.70;;;;;;4956956;28;20523;-73
2023/06/18 04:32:47;;;;;;;9.97;9.17;;;26.50;54.60;;;;;;4953416;29;20465;-72
2023/06/18 04:35:14;;;;;;;9.03;8.33;;;26.40;54.40;;;;;;4943522;28;20570;-72
2023/06/18 04:37:45;;;;;;;9.07;8.37;;;26.40;54.30;;;;;;4956286;28;20415;-72
2023/06/18 04:40:13;;;;;;;9.43;8.47;;;26.30;53.50;;;;;;4972568;28;20448;-72
2023/06/18 04:42:43;;;;;;;9.87;8.87;;;26.30;48.00;;;;;;4972273;28;20802;-72
2023/06/18 04:45:15;;;;;;;9.27;8.23;;;26.30;49.40;;;;;;4956145;28;20841;-72
2023/06/18 04:47:41;;;;;;;9.87;8.97;;;26.30;54.30;;;;;;4956262;28;20430;-72
2023/06/18 04:50:09;;;;;;;9.30;8.60;;;26.30;54.50;;;;;;4956424;28;20525;-72
2023/06/18 04:52:44;;;;;;;9.67;8.93;;;26.30;54.80;;;;;;4956119;28;20421;-72
2023/06/18 04:55:13;;;;;;;9.70;8.90;;;26.30;54.80;;;;;;4939607;28;20446;-72
2023/06/18 04:57:46;;;;;;;9.07;8.37;;;26.30;54.90;;;;;;4939949;28;20442;-72
2023/06/18 05:00:13;;;;;;;10.10;9.20;;;26.30;55.10;;;;;;4940026;28;20425;-72
2023/06/18 05:02:45;;;;;;;9.20;8.33;;;26.20;54.90;;;;;;4972260;28;20433;-72
2023/06/18 05:05:15;;;;;;;9.17;8.27;;;26.20;55.30;;;;;;4940388;28;20489;-72
2023/06/18 05:07:44;;;;;;;8.70;8.00;;;26.30;56.20;;;;;;4955376;28;20477;-72
2023/06/18 05:10:16;;;;;;;8.50;7.63;;;26.20;55.70;;;;;;4956002;28;20429;-73
2023/06/18 05:12:44;;;;;;;9.03;8.33;;;26.30;55.70;;;;;;4955146;28;20537;-72
2023/06/18 05:15:10;;;;;;;9.70;8.90;;;26.20;55.90;;;;;;4955314;28;20481;-72
2023/06/18 05:17:39;;;;;;;9.40;8.60;;;26.20;56.00;;;;;;4955335;28;20433;-72
2023/06/18 05:20:12;;;;;;;9.47;8.67;;;26.20;56.00;;;;;;4936756;29;20828;-72
2023/06/18 05:22:45;;;;;;;9.23;8.43;;;26.20;56.00;;;;;;4952609;29;20999;-72
2023/06/18 05:25:14;;;;;;;9.63;8.73;;;26.20;56.10;;;;;;4944135;28;20787;-74
2023/06/18 05:27:42;;;;;;;9.37;8.67;;;26.20;56.20;;;;;;4973919;28;20939;-74
2023/06/18 05:30:11;;;;;;;9.23;8.50;;;26.20;56.30;;;;;;4956346;28;20434;-74
2023/06/18 05:32:38;;;;;;;9.70;8.90;;;26.10;56.60;;;;;;4940253;28;20986;-72
2023/06/18 05:35:08;;;;;;;10.00;9.10;;;26.20;56.70;;;;;;4953175;28;20458;-74
2023/06/18 05:37:46;;;;;;;9.50;8.70;;;26.20;56.80;;;;;;4970348;28;20999;-74
2023/06/18 05:40:13;;;;;;;10.00;8.47;;;26.10;56.50;;;;;;4965275;28;20497;-74
2023/06/18 05:42:40;;;;;;;10.27;8.77;;;26.10;56.70;;;;;;4965353;28;20457;-75
2023/06/18 05:45:13;;;;;;;9.40;8.17;;;26.20;56.80;;;;;;4965945;28;20449;-74
2023/06/18 05:47:41;;;;;;;8.77;7.97;;;26.10;57.00;;;;;;4939291;28;20857;-73
2023/06/18 05:50:13;;;;;;;10.47;9.27;;;26.10;57.10;;;;;;4954938;28;20449;-74
2023/06/18 05:52:40;;;;;;;9.73;8.87;;;26.10;57.10;;;;;;4954676;28;20421;-74
2023/06/18 05:55:09;;;;;;;8.90;8.03;;;26.20;57.30;;;;;;4939073;28;20441;-74
2023/06/18 05:57:36;;;;;;;9.57;8.87;;;26.10;57.00;;;;;;4953308;28;20425;-74
2023/06/18 06:00:05;;;;;;;9.07;8.37;;;26.10;56.90;;;;;;4954355;28;20422;-75
2023/06/18 06:02:42;;;;;;;10.83;9.73;;;26.10;56.80;;;;;;4939521;28;20450;-74
2023/06/18 06:05:20;;;;;;;9.67;8.80;;;26.10;56.80;;;;;;4951377;28;20453;-74
2023/06/18 06:07:50;;;;;;;8.80;8.10;;;26.10;56.80;;;;;;4938659;28;21158;-74
2023/06/18 06:10:19;;;;;;;9.63;8.73;;;26.10;56.70;;;;;;4954133;28;20450;-74
2023/06/18 06:12:46;;;;;;;9.37;8.57;;;26.10;56.50;;;;;;4970709;28;20452;-75
2023/06/18 06:15:12;;;;;;;9.10;8.30;;;26.00;56.50;;;;;;4954392;28;20458;-74
2023/06/18 06:17:38;;;;;;;8.50;7.80;;;26.10;56.60;;;;;;4954712;28;20422;-75
2023/06/18 06:20:05;;;;;;;9.50;8.60;;;26.10;56.60;;;;;;4930926;28;20430;-74
2023/06/18 06:22:33;;;;;;;9.23;8.53;;;26.10;56.50;;;;;;4970981;28;20430;-74
2023/06/18 06:24:59;;;;;;;9.23;8.53;;;26.10;56.40;;;;;;4954821;28;20851;-74
2023/06/18 06:27:28;;;;;;;9.90;9.03;;;26.10;56.20;;;;;;4954849;28;20418;-74
2023/06/18 06:29:59;;;;;;;9.67;8.87;;;26.10;56.10;;;;;;4971583;28;20953;-74
2023/06/18 06:32:28;;;;;;;9.67;8.97;;;26.10;56.00;;;;;;4954549;28;20438;-75
2023/06/18 06:34:53;;;;;;;10.07;9.30;;;26.10;55.90;;;;;;4951299;28;21015;-74
2023/06/18 06:37:22;;;;;;;9.53;8.83;;;26.10;55.80;;;;;;4951073;28;20423;-74
2023/06/18 06:39:48;;;;;;;9.73;8.70;;;26.00;55.60;;;;;;4937123;28;20551;-74
2023/06/18 06:42:18;;;;;;;9.20;8.40;;;26.10;55.60;;;;;;4935989;28;21064;-74
2023/06/18 06:44:47;;;;;;;8.83;8.13;;;26.10;55.60;;;;;;4952226;28;20429;-74
2023/06/18 06:47:25;;;;;;;9.10;8.20;;;26.10;55.50;;;;;;4952027;28;20461;-73
2023/06/18 06:50:20;;;;;;;10.60;9.60;;;26.10;55.40;;;;;;4946822;28;20418;-74
2023/06/18 06:52:57;;;;;;;9.50;8.70;;;26.10;55.40;;;;;;4968629;28;20426;-74
2023/06/18 06:55:23;;;;;;;9.43;8.67;;;26.10;55.40;;;;;;4968874;28;20454;-74
2023/06/18 06:57:50;;;;;;;9.63;8.73;;;26.10;55.30;;;;;;4969808;28;20945;-74
2023/06/18 07:00:16;;;;;;;9.20;8.30;;;26.10;55.20;;;;;;4937528;28;20457;-74
2023/06/18 07:02:42;;;;;;;9.27;8.47;;;26.10;55.20;;;;;;4941342;29;20492;-75
2023/06/18 07:05:09;;;;;;;9.50;8.80;;;26.10;55.00;;;;;;4948134;28;20450;-72
2023/06/18 07:07:37;;;;;;;8.30;7.63;;;26.10;55.00;;;;;;4934745;29;20429;-74
2023/06/18 07:10:06;;;;;;;9.40;8.60;;;26.10;55.50;;;;;;4967195;28;20505;-75
2023/06/18 07:12:32;;;;;;;9.07;8.37;;;26.10;54.70;;;;;;4953534;28;20467;-74
2023/06/18 07:14:58;;;;;;;9.87;8.97;;;26.10;54.80;;;;;;4953883;28;20417;-74
2023/06/18 07:17:29;;;;;;;9.37;8.53;;;26.10;54.70;;;;;;4954128;28;20841;-73
2023/06/18 07:19:58;;;;;;;8.30;7.60;;;26.10;54.60;;;;;;4969797;28;20431;-74
2023/06/18 07:22:26;;;;;;;9.30;8.43;;;26.10;54.60;;;;;;4953679;28;20603;-74
2023/06/18 07:24:56;;;;;;;10.00;8.67;;;26.10;54.60;;;;;;4954309;28;20520;-74
2023/06/18 07:27:24;;;;;;;9.43;8.60;;;26.10;54.60;;;;;;4934647;29;20430;-74
2023/06/18 07:29:53;;;;;;;8.60;7.90;;;26.10;54.60;;;;;;4950314;29;20435;-75
2023/06/18 07:32:19;;;;;;;9.60;8.70;;;26.20;54.50;;;;;;4917113;29;20608;-72
2023/06/18 07:34:45;;;;;;;10.43;9.33;;;26.20;54.50;;;;;;4955969;28;20947;-72
2023/06/18 07:37:13;;;;;;;9.70;8.90;;;26.20;54.60;;;;;;4936326;28;20438;-72
2023/06/18 07:39:39;;;;;;;9.40;8.70;;;26.20;54.60;;;;;;4935812;28;21146;-72
2023/06/18 07:42:07;;;;;;;9.77;8.97;;;26.20;54.50;;;;;;4936006;28;20465;-72
2023/06/18 07:44:35;;;;;;;9.80;9.00;;;26.30;54.50;;;;;;4967917;28;20430;-73
2023/06/18 07:47:04;;;;;;;10.07;9.17;;;26.30;54.50;;;;;;4935999;28;21090;-72
2023/06/18 07:49:34;;;;;;;9.57;8.87;;;26.30;54.50;;;;;;4954350;28;20944;-73
2023/06/18 07:52:01;;;;;;;10.10;9.20;;;26.30;54.50;;;;;;4955204;28;20434;-72
2023/06/18 07:54:32;;;;;;;10.57;9.67;;;26.30;54.50;;;;;;4954936;28;20525;-72
2023/06/18 07:57:02;;;;;;;9.03;8.23;;;26.30;54.50;;;;;;4939405;28;20834;-72
2023/06/18 07:59:28;;;;;;;10.13;9.23;;;26.30;54.50;;;;;;4955654;28;20462;-73
2023/06/18 08:01:54;;;;;;;9.27;8.57;;;26.30;54.50;;;;;;4955318;28;20483;-75
2023/06/18 08:04:22;;;;;;;9.13;8.43;;;26.30;54.50;;;;;;4952829;28;20426;-72
2023/06/18 08:06:50;;;;;;;9.53;8.73;;;26.40;54.50;;;;;;4972117;28;21110;-72
2023/06/18 08:09:18;;;;;;;9.23;8.33;;;26.40;54.50;;;;;;4970702;28;20497;-72
2023/06/18 08:11:44;;;;;;;10.13;9.33;;;26.40;54.40;;;;;;4953900;28;21088;-72
2023/06/18 08:14:11;;;;;;;9.03;8.33;;;26.40;54.40;;;;;;4971588;28;20717;-72
2023/06/18 08:16:38;;;;;;;9.53;8.73;;;26.40;54.40;;;;;;4955046;28;20476;-72
2023/06/18 08:19:05;;;;;;;9.83;9.13;;;26.40;54.40;;;;;;4954414;28;20438;-73
2023/06/18 08:21:31;;;;;;;9.60;8.90;;;26.40;54.40;;;;;;4964660;28;21006;-73
2023/06/18 08:24:01;;;;;;;9.60;8.90;;;26.50;54.40;;;;;;4971401;28;20529;-71
2023/06/18 08:26:29;;;;;;;10.10;9.30;;;26.50;54.40;;;;;;4972329;28;20788;-72
2023/06/18 08:28:55;;;;;;;9.43;8.73;;;26.50;54.30;;;;;;4955438;28;20437;-73
2023/06/18 08:31:23;;;;;;;9.90;9.10;;;26.50;54.30;;;;;;4972794;28;20205;-73
2023/06/18 08:33:49;;;;;;;9.10;8.40;;;26.50;54.40;;;;;;4970890;28;20578;-73
2023/06/18 08:36:19;;;;;;;9.40;8.47;;;26.50;54.40;;;;;;4938832;28;20546;-73
2023/06/18 08:38:47;;;;;;;9.93;8.90;;;26.50;54.30;;;;;;4954075;28;20903;-72
2023/06/18 08:41:16;;;;;;;9.23;8.43;;;26.60;54.40;;;;;;5034059;23;1178660;-72
2023/06/18 08:43:42;;;;;;;10.30;9.60;;;26.60;54.40;;;;;;4982332;28;20182;-73
2023/06/18 08:46:16;;;;;;;9.47;8.77;;;26.60;54.40;;;;;;4974702;28;20463;-73
2023/06/18 08:48:59;;;;;;;9.53;8.77;;;26.60;54.30;;;;;;4948344;28;20430;-73
2023/06/18 08:51:30;;;;;;;9.90;9.10;;;26.60;54.30;;;;;;4955430;28;20434;-73
2023/06/18 08:54:15;;;;;;;9.10;8.40;;;26.60;54.80;;;;;;4955429;28;20473;-73
2023/06/18 08:56:44;;;;;;;9.07;8.37;;;26.70;54.30;;;;;;4955028;28;20562;-73
2023/06/18 08:59:13;;;;;;;8.97;8.23;;;26.70;54.30;;;;;;4954649;28;20441;-73
2023/06/18 09:01:46;;;;;;;8.67;8.07;;;26.70;54.20;;;;;;4954101;28;20474;-73
2023/06/18 09:04:17;;;;;;;10.07;9.17;;;26.70;54.20;;;;;;4970916;28;20418;-73
2023/06/18 09:06:46;;;;;;;11.33;8.37;;;26.70;54.20;;;;;;4972193;28;20549;-73
2023/06/18 09:09:16;;;;;;;9.70;8.90;;;26.80;54.30;;;;;;4970799;28;20918;-73
2023/06/18 09:11:42;;;;;;;9.53;8.83;;;26.80;54.20;;;;;;4971952;28;20509;-72
2023/06/18 09:14:09;;;;;;;9.90;9.20;;;26.80;54.20;;;;;;4938677;28;20939;-73
2023/06/18 09:16:41;;;;;;;10.37;9.50;;;26.80;54.20;;;;;;4938866;28;20536;-74
2023/06/18 09:19:08;;;;;;;9.70;9.00;;;26.90;54.30;;;;;;4972121;28;20931;-73
2023/06/18 09:21:40;;;;;;;9.57;8.87;;;26.80;54.20;;;;;;4953895;28;20472;-74
2023/06/18 09:24:17;;;;;;;8.53;7.83;;;26.90;54.30;;;;;;4951258;28;20470;-76
2023/06/18 09:26:50;;;;;;;9.90;9.10;;;26.80;54.20;;;;;;4935414;29;20938;-73
2023/06/18 09:29:21;;;;;;;9.80;9.00;;;26.90;54.20;;;;;;4935742;29;20430;-74
2023/06/18 09:31:49;;;;;;;9.80;8.77;;;26.90;54.10;;;;;;4964471;28;20431;-74
2023/06/18 09:34:18;;;;;;;10.27;9.40;;;26.90;54.10;;;;;;4952290;28;20437;-73
2023/06/18 09:36:46;;;;;;;9.10;8.40;;;26.90;54.10;;;;;;4940606;28;20811;-74
2023/06/18 09:39:21;;;;;;;10.10;9.10;;;27.00;54.20;;;;;;4925122;28;20429;-75
2023/06/18 09:41:49;;;;;;;10.17;9.27;;;26.90;54.10;;;;;;4956607;28;20523;-75
2023/06/18 09:44:16;;;;;;;10.47;9.50;;;27.00;54.00;;;;;;4974312;28;20422;-75
2023/06/18 09:46:58;;;;;;;9.33;8.53;;;27.00;54.00;;;;;;4956036;28;20434;-74
2023/06/18 09:49:25;;;;;;;10.37;9.57;;;27.00;53.90;;;;;;4955692;28;20547;-73
2023/06/18 09:51:59;;;;;;;9.50;8.70;;;27.00;53.90;;;;;;4956444;28;20417;-73
2023/06/18 09:54:39;;;;;;;11.10;10.20;;;27.00;53.70;;;;;;4920662;29;20528;-74
2023/06/18 09:57:11;;;;;;;10.40;9.50;;;27.10;53.90;;;;;;4936769;29;20467;-73
2023/06/18 09:59:39;;;;;;;10.70;9.73;;;27.00;53.80;;;;;;4954250;28;20426;-74
2023/06/18 10:02:13;;;;;;;9.53;8.83;;;27.10;53.90;;;;;;4955117;28;20932;-74
2023/06/18 10:04:42;;;;;;;9.63;8.80;;;27.20;54.00;;;;;;4921364;29;21032;-76
2023/06/18 10:07:15;;;;;;;9.43;8.60;;;27.20;54.00;;;;;;4954411;29;20406;-75
2023/06/18 10:09:45;;;;;;;10.53;9.67;;;27.20;54.00;;;;;;4943626;28;20478;-75
2023/06/18 10:12:15;;;;;;;10.57;9.60;;;27.20;54.10;;;;;;4939471;28;20416;-75
2023/06/18 10:14:42;;;;;;;10.47;9.53;;;27.20;54.20;;;;;;4973292;28;20438;-75
2023/06/18 10:17:20;;;;;;;10.53;9.53;;;27.30;54.40;;;;;;4956341;28;20477;-75
2023/06/18 10:20:01;;;;;;;11.40;10.50;;;27.30;54.20;;;;;;4924493;28;20485;-75
2023/06/18 10:22:32;;;;;;;9.90;9.10;;;27.30;54.20;;;;;;4956412;28;20450;-75
2023/06/18 10:25:05;;;;;;;9.93;9.13;;;27.30;54.30;;;;;;4939806;28;20967;-75
2023/06/18 10:27:35;;;;;;;9.97;9.10;;;27.40;54.40;;;;;;4956735;28;20406;-75
2023/06/18 10:30:04;;;;;;;10.73;9.83;;;27.40;54.40;;;;;;4947577;29;20424;-75
2023/06/18 10:32:33;;;;;;;11.47;10.47;;;27.40;54.40;;;;;;4951857;28;20450;-75
2023/06/18 10:35:08;;;;;;;10.50;9.70;;;27.40;54.40;;;;;;4929248;28;20453;-76
2023/06/18 10:37:38;;;;;;;9.97;9.17;;;27.50;54.40;;;;;;4972656;28;20406;-75
2023/06/18 10:40:08;;;;;;;10.17;9.37;;;27.60;54.50;;;;;;4932161;29;20477;-75
2023/06/18 10:42:34;;;;;;;9.53;8.73;;;27.60;54.40;;;;;;4920532;29;21046;-75
2023/06/18 10:45:15;;;;;;;9.90;9.00;;;27.60;54.90;;;;;;4936704;28;20435;-75
2023/06/18 10:47:46;;;;;;;9.57;8.87;;;27.70;54.30;;;;;;4940637;28;20774;-75
2023/06/18 10:50:16;;;;;;;11.87;10.97;;;27.70;54.20;;;;;;4972090;28;20419;-75
2023/06/18 10:52:51;;;;;;;10.67;9.73;;;27.70;54.00;;;;;;4973589;28;20410;-75
2023/06/18 10:55:27;;;;;;;10.13;9.40;;;27.80;54.00;;;;;;4973461;28;20508;-75
2023/06/18 10:58:00;;;;;;;10.33;9.43;;;27.80;54.00;;;;;;4972792;28;20437;-76
2023/06/18 11:00:40;;;;;;;9.37;8.67;;;27.80;53.90;;;;;;4939435;28;20426;-75
2023/06/18 11:03:18;;;;;;;9.83;9.10;;;27.80;53.70;;;;;;4923661;28;20422;-75
2023/06/18 11:05:48;;;;;;;9.20;8.50;;;27.90;53.60;;;;;;4955250;28;20903;-74
2023/06/18 11:08:16;;;;;;;9.23;8.53;;;28.00;53.60;;;;;;4951676;28;20510;-72
2023/06/18 11:10:47;;;;;;;10.27;9.47;;;28.00;53.50;;;;;;4953926;28;21007;-73
2023/06/18 11:13:16;;;;;;;9.27;8.60;;;28.00;53.40;;;;;;4954901;28;20446;-74
2023/06/18 11:16:14;;;;;;;9.63;8.93;;;28.00;53.30;;;;;;4954328;28;20814;-74
2023/06/18 11:18:42;;;;;;;8.90;8.20;;;28.10;53.20;;;;;;4964643;28;21023;-74
2023/06/18 11:21:17;;;;;;;9.60;8.70;;;28.20;53.10;;;;;;4970189;28;20450;-74
2023/06/18 11:23:44;;;;;;;9.40;8.73;;;28.20;53.00;;;;;;4955015;28;20441;-74
2023/06/18 11:26:17;;;;;;;9.70;8.90;;;28.20;52.90;;;;;;4974541;28;20446;-74
2023/06/18 11:28:46;;;;;;;9.93;9.13;;;28.20;52.80;;;;;;4973842;28;20410;-74
2023/06/18 11:31:15;;;;;;;9.87;8.73;;;28.20;52.50;;;;;;4941970;29;21044;-74
2023/06/18 11:33:47;;;;;;;9.80;9.10;;;28.30;52.50;;;;;;4923744;29;20450;-74
2023/06/18 11:36:15;;;;;;;9.80;9.00;;;28.30;52.60;;;;;;4939287;29;20442;-74
2023/06/18 11:38:45;;;;;;;10.20;9.30;;;28.30;52.50;;;;;;4956771;29;20403;-74
2023/06/18 11:41:11;;;;;;;9.53;8.83;;;28.40;52.30;;;;;;4923290;29;20835;-74
2023/06/18 11:43:51;;;;;;;9.60;8.70;;;28.40;52.30;;;;;;4940722;28;20441;-74
2023/06/18 11:46:30;;;;;;;8.87;8.20;;;28.40;52.30;;;;;;4974662;28;21091;-74
2023/06/18 11:48:59;;;;;;;9.37;8.77;;;28.40;52.30;;;;;;4958266;28;20485;-74
2023/06/18 11:51:30;;;;;;;9.23;8.63;;;28.50;52.40;;;;;;4975867;28;20410;-74
2023/06/18 11:53:57;;;;;;;8.97;8.23;;;28.50;52.40;;;;;;4958267;28;20399;-74
2023/06/18 11:56:24;;;;;;;9.20;8.50;;;28.50;52.20;;;;;;4974035;28;20505;-74
2023/06/18 11:58:51;;;;;;;9.10;8.40;;;28.50;52.10;;;;;;4942795;28;20410;-75
2023/06/18 12:01:24;;;;;;;8.83;8.23;;;28.60;52.20;;;;;;4958308;28;20612;-74
2023/06/18 12:03:50;;;;;;;10.20;9.17;;;28.60;52.20;;;;;;4975708;28;20426;-74
2023/06/18 12:06:19;;;;;;;9.80;9.07;;;28.60;52.10;;;;;;4958138;28;20454;-74
2023/06/18 12:08:46;;;;;;;9.53;8.73;;;28.60;52.10;;;;;;4958274;28;20411;-75
2023/06/18 12:11:35;;;;;;;8.43;7.73;;;28.60;52.00;;;;;;4957823;28;20473;-73
2023/06/18 12:14:08;;;;;;;15.83;9.43;;;28.60;51.60;;;;;;4965020;28;20430;-74
2023/06/18 12:16:41;;;;;;;9.30;8.60;;;28.60;51.50;;;;;;4975270;28;20491;-74
2023/06/18 12:19:11;;;;;;;9.20;8.50;;;28.80;51.60;;;;;;4942052;28;20525;-74
2023/06/18 12:21:37;;;;;;;9.40;8.70;;;28.80;51.60;;;;;;4957502;28;20484;-74
2023/06/18 12:24:04;;;;;;;9.20;8.50;;;28.80;51.60;;;;;;4958597;28;20524;-74
2023/06/18 12:26:34;;;;;;;9.10;8.30;;;28.80;51.40;;;;;;4958129;28;20430;-74
2023/06/18 12:29:05;;;;;;;9.23;8.53;;;28.80;51.40;;;;;;4941755;28;20450;-74
2023/06/18 12:31:31;;;;;;;9.90;8.90;;;28.80;51.30;;;;;;4974558;28;20413;-74
2023/06/18 12:34:01;;;;;;;9.07;8.37;;;28.90;51.40;;;;;;4941546;28;20471;-74
2023/06/18 12:36:27;;;;;;;9.20;8.50;;;28.90;51.30;;;;;;4974743;28;20444;-75
2023/06/18 12:38:53;;;;;;;9.20;8.50;;;28.90;51.40;;;;;;4957437;28;20414;-74
2023/06/18 12:41:22;;;;;;;9.40;8.70;;;29.00;51.50;;;;;;4957725;28;20465;-74
2023/06/18 12:43:48;;;;;;;9.20;8.40;;;29.00;51.40;;;;;;4974680;28;20418;-74
2023/06/18 12:46:27;;;;;;;8.70;8.10;;;29.00;51.40;;;;;;4941055;28;20460;-74
2023/06/18 12:49:00;;;;;;;8.30;7.70;;;29.10;51.50;;;;;;4974688;28;20916;-74
2023/06/18 12:51:41;;;;;;;9.10;8.30;;;29.10;51.50;;;;;;4975154;28;20843;-74
2023/06/18 12:54:21;;;;;;;9.47;8.63;;;29.00;51.30;;;;;;4974742;28;20415;-74
2023/06/18 12:56:53;;;;;;;8.80;8.20;;;29.10;51.40;;;;;;4957112;28;20504;-75
2023/06/18 12:59:25;;;;;;;8.80;8.00;;;29.10;51.50;;;;;;4973210;28;20407;-74